Margherita Iuliano — IBHR — position and weather

sailwx.info

Track history (hours):
 
Tides and Currents Weather Stations Pressure Air Temp Water Temp Dewpoint Dewpoint Depression Visibility Wind Speed Wind Dir Waves Ship Positions

Margherita Iuliano

Last reported at 2013-Aug-23 01:19 UTC. Time now 2014-Oct-25 08:51 UTC.
Position N 37°06' W 006°52'.
Warning: this ship's position is years out of date!

Length 95 m; draft 5.1 m.

Type: Ship (hazmat cat A). MMSI: 247258300.

Date/timePositionNaut miles runAvg speedWind from/ knotsBaromVisibWave heightAir tempDewpointWater temp
2013-Aug-23 01:19N 37°06' W 006°52'0 0.0
2013-Aug-22 06:16N 37°06' W 006°52'  
2013-Aug-19 04:25N 36°28' W 002°06'1011.2
2013-Aug-19 03:33N 36°33' W 001°56'1211.9
2013-Aug-19 02:33N 36°40' W 001°43'3912.8
2013-Aug-18 23:31N 37°00' W 001°02'1313.1
2013-Aug-18 22:32N 37°07' W 000°48'6112.2
2013-Aug-18 17:32N 37°38' E 000°18'11012.2
2013-Aug-18 08:32N 38°36' E 002°17'1512.5
2013-Aug-18 07:20N 38°44' E 002°34'1012.4
2013-Aug-18 06:33N 38°48' E 002°45'1212.2
2013-Aug-18 05:34N 38°50' E 002°60'1312.5
2013-Aug-18 04:30N 38°50' E 003°17'1312.6
2013-Aug-18 03:29N 38°49' E 003°33'1212.6
2013-Aug-18 02:30N 38°49' E 003°49'1612.7
2013-Aug-18 01:14N 38°48' E 004°10'912.6
2013-Aug-18 00:33N 38°48' E 004°21'1412.6
2013-Aug-17 23:27N 38°46' E 004°39'  
2013-Aug-14 22:04N 40°18' E 004°24'612.5
2013-Aug-14 21:33N 40°21' E 004°17'1312.6
2013-Aug-14 20:33N 40°27' E 004°02'2712.6
2013-Aug-14 18:23N 40°41' E 003°31'1112.8
2013-Aug-14 17:34N 40°46' E 003°19'1312.8
2013-Aug-14 16:33N 40°53' E 003°05'1312.5
2013-Aug-14 15:33N 40°60' E 002°50'1412.3
2013-Aug-14 14:24N 41°06' E 002°34'21 1.9
2013-Aug-14 03:28N 41°18' E 002°11'1 0.4
2013-Aug-13 23:28N 41°20' E 002°11'0 0.0
2013-Aug-13 19:26N 41°20' E 002°11'7 1.2
2013-Aug-13 13:13N 41°17' E 002°20'812.8
2013-Aug-13 12:33N 41°22' E 002°30'1313.0
2013-Aug-13 11:33N 41°28' E 002°45'1312.9
2013-Aug-13 10:33N 41°35' E 002°60'1313.0
2013-Aug-13 09:33N 41°41' E 003°15'1312.9
2013-Aug-13 08:33N 41°52' E 003°23'1313.2
2013-Aug-13 07:32N 42°05' E 003°30'1313.5
2013-Aug-13 06:33N 42°17' E 003°37'1313.1
2013-Aug-13 05:33N 42°27' E 003°49'1313.1
2013-Aug-13 04:33N 42°35' E 004°02'1313.1
2013-Aug-13 03:33N 42°44' E 004°16'1313.0
2013-Aug-13 02:33N 42°52' E 004°29'1313.1
2013-Aug-13 01:32N 43°00' E 004°44'  
Track history (hours):
 
Tides and Currents Weather Stations Pressure Air Temp Water Temp Dewpoint Dewpoint Depression Visibility Wind Speed Wind Dir Waves Ship Positions

Margherita Iuliano

Last reported at 2013-Aug-23 01:19 UTC. Time now 2014-Oct-25 08:51 UTC.
Position N 37°06' W 006°52'.
Warning: this ship's position is years out of date!

Length 95 m; draft 5.1 m.

Type: Ship (hazmat cat A). MMSI: 247258300.

Date/timePositionNaut miles runAvg speedWind from/ knotsBaromVisibWave heightAir tempDewpointWater temp
2013-Aug-23 01:19N 37°06' W 006°52'0 0.0
2013-Aug-22 06:16N 37°06' W 006°52'  
2013-Aug-19 04:25N 36°28' W 002°06'1011.2
2013-Aug-19 03:33N 36°33' W 001°56'1211.9
2013-Aug-19 02:33N 36°40' W 001°43'3912.8
2013-Aug-18 23:31N 37°00' W 001°02'1313.1
2013-Aug-18 22:32N 37°07' W 000°48'6112.2
2013-Aug-18 17:32N 37°38' E 000°18'11012.2
2013-Aug-18 08:32N 38°36' E 002°17'1512.5
2013-Aug-18 07:20N 38°44' E 002°34'1012.4
2013-Aug-18 06:33N 38°48' E 002°45'1212.2
2013-Aug-18 05:34N 38°50' E 002°60'1312.5
2013-Aug-18 04:30N 38°50' E 003°17'1312.6
2013-Aug-18 03:29N 38°49' E 003°33'1212.6
2013-Aug-18 02:30N 38°49' E 003°49'1612.7
2013-Aug-18 01:14N 38°48' E 004°10'912.6
2013-Aug-18 00:33N 38°48' E 004°21'1412.6
2013-Aug-17 23:27N 38°46' E 004°39'  
2013-Aug-14 22:04N 40°18' E 004°24'612.5
2013-Aug-14 21:33N 40°21' E 004°17'1312.6
2013-Aug-14 20:33N 40°27' E 004°02'2712.6
2013-Aug-14 18:23N 40°41' E 003°31'1112.8
2013-Aug-14 17:34N 40°46' E 003°19'1312.8
2013-Aug-14 16:33N 40°53' E 003°05'1312.5
2013-Aug-14 15:33N 40°60' E 002°50'1412.3
2013-Aug-14 14:24N 41°06' E 002°34'21 1.9
2013-Aug-14 03:28N 41°18' E 002°11'1 0.4
2013-Aug-13 23:28N 41°20' E 002°11'0 0.0
2013-Aug-13 19:26N 41°20' E 002°11'7 1.2
2013-Aug-13 13:13N 41°17' E 002°20'812.8
2013-Aug-13 12:33N 41°22' E 002°30'1313.0
2013-Aug-13 11:33N 41°28' E 002°45'1312.9
2013-Aug-13 10:33N 41°35' E 002°60'1313.0
2013-Aug-13 09:33N 41°41' E 003°15'1312.9
2013-Aug-13 08:33N 41°52' E 003°23'1313.2
2013-Aug-13 07:32N 42°05' E 003°30'1313.5
2013-Aug-13 06:33N 42°17' E 003°37'1313.1
2013-Aug-13 05:33N 42°27' E 003°49'1313.1
2013-Aug-13 04:33N 42°35' E 004°02'1313.1
2013-Aug-13 03:33N 42°44' E 004°16'1313.0
2013-Aug-13 02:33N 42°52' E 004°29'1313.1
2013-Aug-13 01:32N 43°00' E 004°44'  

Dump ship's entire track history